createdAt,value
2022-12-04T00:02:19.972Z,19.92
2022-12-04T00:04:53.495Z,20.75
2022-12-04T00:07:24.393Z,19.05
2022-12-04T00:09:57.532Z,20.15
2022-12-04T00:12:30.979Z,20.42
2022-12-04T00:15:24.938Z,18.58
2022-12-04T00:17:52.787Z,19.15
2022-12-04T00:20:26.460Z,19.17
2022-12-04T00:22:57.287Z,19.55
2022-12-04T00:25:28.142Z,19.98
2022-12-04T00:28:01.301Z,20.85
2022-12-04T00:30:33.422Z,17.95
2022-12-04T00:33:04.306Z,18.98
2022-12-04T00:35:37.911Z,20.00
2022-12-04T00:38:08.718Z,18.40
2022-12-04T00:40:39.584Z,19.38
2022-12-04T00:43:12.873Z,20.50
2022-12-04T00:45:43.683Z,19.98
2022-12-04T00:48:14.654Z,20.50
2022-12-04T00:50:48.529Z,18.42
2022-12-04T00:53:20.520Z,20.15
2022-12-04T00:55:51.341Z,19.02
2022-12-04T00:58:22.318Z,19.00
2022-12-04T01:00:53.556Z,18.63
2022-12-04T01:03:24.434Z,20.98
2022-12-04T01:05:59.073Z,18.85
2022-12-04T01:08:30.127Z,19.08
2022-12-04T01:11:01.322Z,19.55
2022-12-04T01:13:32.064Z,19.67
2022-12-04T01:16:02.979Z,20.90
2022-12-04T01:18:33.838Z,19.63
2022-12-04T01:21:08.542Z,18.27
2022-12-04T01:23:39.349Z,18.73
2022-12-04T01:26:13.182Z,18.38
2022-12-04T01:28:44.464Z,19.25
2022-12-04T01:31:18.865Z,19.52
2022-12-04T01:33:52.096Z,20.63
2022-12-04T01:36:27.584Z,19.05
2022-12-04T01:38:59.351Z,19.70
2022-12-04T01:41:34.797Z,18.90
2022-12-04T01:44:11.095Z,20.48
2022-12-04T01:46:42.719Z,19.30
2022-12-04T01:49:17.789Z,19.85
2022-12-04T01:51:54.483Z,19.73
2022-12-04T01:54:30.458Z,18.73
2022-12-04T01:57:06.937Z,18.88
2022-12-04T01:59:42.654Z,18.13
2022-12-04T02:02:19.049Z,19.75
2022-12-04T02:04:56.208Z,17.65
2022-12-04T02:07:30.312Z,17.92
2022-12-04T02:10:06.352Z,18.17
2022-12-04T02:12:44.986Z,18.33
2022-12-04T02:15:22.814Z,17.50
2022-12-04T02:18:01.190Z,17.35
2022-12-04T02:20:40.454Z,16.52
2022-12-04T02:23:40.503Z,17.88
2022-12-04T02:26:27.966Z,16.15
2022-12-04T02:29:09.076Z,17.48
2022-12-04T02:31:45.748Z,17.20
2022-12-04T02:34:21.020Z,16.98
2022-12-04T02:36:57.662Z,16.58
2022-12-04T02:39:34.845Z,17.73
2022-12-04T02:42:15.601Z,16.95
2022-12-04T02:44:52.427Z,16.42
2022-12-04T02:47:26.627Z,16.77
2022-12-04T02:50:01.023Z,16.75
2022-12-04T02:52:38.488Z,16.40
2022-12-04T02:55:17.420Z,15.68
2022-12-04T02:57:52.872Z,16.55
2022-12-04T03:00:27.946Z,16.00
2022-12-04T03:03:01.879Z,16.05
2022-12-04T03:05:45.958Z,15.35
2022-12-04T03:08:22.221Z,15.90
2022-12-04T03:10:57.569Z,16.30
2022-12-04T03:13:35.355Z,16.58
2022-12-04T03:16:13.474Z,15.50
2022-12-04T03:18:47.875Z,16.08
2022-12-04T03:21:23.207Z,15.00
2022-12-04T03:23:59.633Z,15.25
2022-12-04T03:26:37.147Z,14.73
2022-12-04T03:29:14.959Z,15.50
2022-12-04T03:31:51.820Z,15.25
2022-12-04T03:34:29.636Z,14.27
2022-12-04T03:37:06.161Z,14.90
2022-12-04T03:39:40.643Z,14.40
2022-12-04T03:42:18.958Z,15.82
2022-12-04T03:44:55.795Z,14.25
2022-12-04T03:47:36.417Z,15.27
2022-12-04T03:50:16.478Z,15.40
2022-12-04T03:52:51.959Z,16.45
2022-12-04T03:55:27.860Z,15.25
2022-12-04T03:58:04.994Z,14.98
2022-12-04T04:00:39.587Z,15.15
2022-12-04T04:03:19.010Z,15.93
2022-12-04T04:05:55.558Z,14.90
2022-12-04T04:08:34.185Z,16.35
2022-12-04T04:11:13.272Z,16.33
2022-12-04T04:14:01.638Z,15.65
2022-12-04T04:16:50.708Z,16.90
2022-12-04T04:19:37.560Z,15.35
2022-12-04T04:22:25.178Z,16.30
2022-12-04T04:25:02.343Z,16.45
2022-12-04T04:27:33.555Z,18.15
2022-12-04T04:30:04.633Z,16.25
2022-12-04T04:32:40.958Z,16.10
2022-12-04T04:35:21.977Z,16.27
2022-12-04T04:37:59.796Z,15.82
2022-12-04T04:40:37.270Z,15.75
2022-12-04T04:43:13.639Z,15.40
2022-12-04T04:45:50.392Z,16.77
2022-12-04T04:48:28.158Z,15.30
2022-12-04T04:51:03.049Z,15.68
2022-12-04T04:53:39.766Z,15.57
2022-12-04T04:56:11.960Z,14.57
2022-12-04T04:58:42.991Z,15.75
2022-12-04T05:01:17.083Z,16.30
2022-12-04T05:03:48.156Z,15.63
2022-12-04T05:06:21.788Z,14.98
2022-12-04T05:08:52.547Z,14.65
2022-12-04T05:11:23.936Z,15.93
2022-12-04T05:13:55.458Z,14.43
2022-12-04T05:16:27.339Z,14.82
2022-12-04T05:19:10.666Z,15.88
2022-12-04T05:21:44.284Z,14.95
2022-12-04T05:24:17.688Z,14.80
2022-12-04T05:26:48.449Z,14.07
2022-12-04T05:29:19.257Z,15.05
2022-12-04T05:31:50.074Z,12.98
2022-12-04T05:34:21.297Z,13.63
2022-12-04T05:36:55.442Z,13.85
2022-12-04T05:39:27.714Z,13.90
2022-12-04T05:42:01.482Z,14.50
2022-12-04T05:44:32.478Z,13.93
2022-12-04T05:47:03.437Z,12.43
2022-12-04T05:49:36.079Z,14.00
2022-12-04T05:52:10.579Z,13.15
2022-12-04T05:54:41.666Z,13.82
2022-12-04T05:57:12.457Z,14.15
2022-12-04T05:59:43.553Z,13.30
2022-12-04T06:02:14.560Z,11.75
2022-12-04T06:04:45.482Z,14.13
2022-12-04T06:07:21.436Z,12.90
2022-12-04T06:09:52.366Z,12.85
2022-12-04T06:12:23.152Z,11.95
2022-12-04T06:14:53.984Z,14.40
2022-12-04T06:17:25.569Z,14.50
2022-12-04T06:19:56.791Z,13.45
2022-12-04T06:22:30.413Z,12.80
2022-12-04T06:25:01.594Z,14.32
2022-12-04T06:27:32.695Z,13.23
2022-12-04T06:30:04.535Z,12.65
2022-12-04T06:32:35.403Z,12.63
2022-12-04T06:35:06.994Z,13.05
2022-12-04T06:37:40.344Z,12.13
2022-12-04T06:40:12.336Z,12.68
2022-12-04T06:42:43.105Z,13.55
2022-12-04T06:45:15.292Z,12.60
2022-12-04T06:47:46.075Z,12.23
2022-12-04T06:50:17.182Z,12.43
2022-12-04T06:52:51.547Z,12.05
2022-12-04T06:55:23.640Z,11.25
2022-12-04T06:57:54.415Z,10.98
2022-12-04T07:00:25.636Z,12.70
2022-12-04T07:02:57.620Z,12.38
2022-12-04T07:05:30.223Z,11.82
2022-12-04T07:08:03.688Z,13.27
2022-12-04T07:10:34.483Z,14.15
2022-12-04T07:13:06.911Z,12.77
2022-12-04T07:15:40.391Z,13.15
2022-12-04T07:18:11.177Z,13.60
2022-12-04T07:20:43.444Z,12.68
2022-12-04T07:23:16.863Z,14.32
2022-12-04T07:25:47.636Z,14.02
2022-12-04T07:28:18.411Z,12.75
2022-12-04T07:30:49.230Z,13.10
2022-12-04T07:33:20.046Z,12.85
2022-12-04T07:35:58.627Z,13.32
2022-12-04T07:38:32.869Z,13.25
2022-12-04T07:41:05.458Z,14.32
2022-12-04T07:43:37.250Z,12.43
2022-12-04T07:46:09.978Z,13.63
2022-12-04T07:48:42.288Z,13.93
2022-12-04T07:51:17.638Z,12.05
2022-12-04T07:53:51.735Z,13.20
2022-12-04T07:56:23.354Z,13.55
2022-12-04T07:58:54.193Z,13.23
2022-12-04T08:01:27.821Z,12.55
2022-12-04T08:04:00.529Z,12.45
2022-12-04T08:06:33.411Z,12.07
2022-12-04T08:09:10.577Z,13.90
2022-12-04T08:11:41.722Z,13.07
2022-12-04T08:14:15.058Z,12.82
2022-12-04T08:16:52.324Z,13.32
2022-12-04T08:19:26.062Z,13.18
2022-12-04T08:21:58.566Z,13.30
2022-12-04T08:24:32.027Z,13.63
2022-12-04T08:27:02.860Z,13.82
2022-12-04T08:29:33.676Z,13.73
2022-12-04T08:32:05.136Z,13.65
2022-12-04T08:34:36.155Z,14.20
2022-12-04T08:37:06.947Z,14.40
2022-12-04T08:39:40.291Z,13.32
2022-12-04T08:42:11.042Z,13.38
2022-12-04T08:44:41.869Z,12.80
2022-12-04T08:47:12.642Z,13.70
2022-12-04T08:49:43.460Z,14.25
2022-12-04T08:52:14.326Z,14.95
2022-12-04T08:54:47.887Z,13.82
2022-12-04T08:57:20.000Z,13.38
2022-12-04T08:59:53.486Z,14.98
2022-12-04T09:02:25.147Z,13.57
2022-12-04T09:04:56.296Z,14.82
2022-12-04T09:07:27.259Z,13.75
2022-12-04T09:10:01.200Z,14.63
2022-12-04T09:12:32.682Z,14.85
2022-12-04T09:15:03.423Z,14.18
2022-12-04T09:17:34.188Z,14.90
2022-12-04T09:20:06.223Z,15.55
2022-12-04T09:23:02.307Z,14.65
2022-12-04T09:25:40.501Z,14.52
2022-12-04T09:28:11.526Z,15.88
2022-12-04T09:30:44.768Z,14.63
2022-12-04T09:33:16.169Z,15.05
2022-12-04T09:35:47.150Z,15.18
2022-12-04T09:38:18.081Z,15.40
2022-12-04T09:41:02.162Z,15.07
2022-12-04T09:43:38.138Z,14.20
2022-12-04T09:46:14.849Z,15.27
2022-12-04T09:48:51.226Z,14.85
2022-12-04T09:51:26.331Z,14.05
2022-12-04T09:54:01.991Z,14.00
2022-12-04T09:56:35.562Z,14.55
2022-12-04T09:59:13.842Z,15.70
2022-12-04T10:01:48.145Z,13.77
2022-12-04T10:04:19.360Z,13.10
2022-12-04T10:06:54.888Z,14.05
2022-12-04T10:09:30.226Z,13.85
2022-12-04T10:12:12.343Z,14.93
2022-12-04T10:14:56.349Z,14.00
2022-12-04T10:17:47.843Z,14.68
2022-12-04T10:20:36.332Z,14.63
2022-12-04T10:23:15.905Z,15.05
2022-12-04T10:25:46.837Z,16.40
2022-12-04T10:28:27.229Z,15.05
2022-12-04T10:31:02.969Z,14.57
2022-12-04T10:33:40.001Z,14.20
2022-12-04T10:36:17.779Z,15.13
2022-12-04T10:38:54.093Z,14.45
2022-12-04T10:41:30.341Z,13.57
2022-12-04T10:44:03.896Z,13.53
2022-12-04T10:46:41.750Z,13.35
2022-12-04T10:49:20.199Z,14.65
2022-12-04T10:51:51.707Z,14.15
2022-12-04T10:54:25.117Z,14.48
2022-12-04T10:56:58.623Z,14.02
2022-12-04T10:59:33.008Z,13.57
2022-12-04T11:02:07.514Z,14.35
2022-12-04T11:04:40.242Z,14.90
2022-12-04T11:07:22.894Z,13.80
2022-12-04T11:10:03.196Z,13.48
2022-12-04T11:12:34.433Z,13.75
2022-12-04T11:15:16.545Z,14.48
2022-12-04T11:17:47.616Z,13.45
2022-12-04T11:20:21.388Z,13.45
2022-12-04T11:22:57.720Z,13.60
2022-12-04T11:25:30.666Z,13.93
2022-12-04T11:28:05.810Z,13.07
2022-12-04T11:30:41.296Z,15.25
2022-12-04T11:33:21.922Z,15.02
2022-12-04T11:35:58.020Z,15.35
2022-12-04T11:38:40.680Z,14.73
2022-12-04T11:41:28.448Z,15.63
2022-12-04T11:44:02.157Z,15.13
2022-12-04T11:46:37.529Z,14.57
2022-12-04T11:49:08.645Z,15.98
2022-12-04T11:51:51.219Z,16.05
2022-12-04T11:54:34.050Z,14.30
2022-12-04T11:57:13.681Z,15.00
2022-12-04T12:00:00.126Z,13.75
2022-12-04T12:02:47.179Z,12.88
2022-12-04T12:06:00.104Z,13.30
2022-12-04T12:08:46.142Z,11.70
2022-12-04T12:11:24.592Z,14.50
2022-12-04T12:14:04.665Z,12.60
2022-12-04T12:16:51.656Z,13.18
2022-12-04T12:19:49.735Z,12.98
2022-12-04T12:22:31.322Z,13.38
2022-12-04T12:25:11.830Z,13.60
2022-12-04T12:28:14.175Z,13.77
2022-12-04T12:31:05.541Z,13.63
2022-12-04T12:33:42.450Z,13.70
2022-12-04T12:36:21.568Z,12.60
2022-12-04T12:38:58.987Z,12.63
2022-12-04T12:41:34.845Z,13.00
2022-12-04T12:44:09.891Z,12.00
2022-12-04T12:46:48.960Z,13.48
2022-12-04T12:49:26.206Z,13.00
2022-12-04T12:52:06.038Z,13.00
2022-12-04T12:54:50.847Z,12.77
2022-12-04T12:57:34.800Z,13.25
2022-12-04T13:00:10.092Z,13.82
2022-12-04T13:02:50.307Z,13.50
2022-12-04T13:05:27.787Z,12.88
2022-12-04T13:08:09.179Z,13.98
2022-12-04T13:10:46.637Z,12.90
2022-12-04T13:13:26.002Z,12.65
2022-12-04T13:16:02.109Z,12.80
2022-12-04T13:18:39.497Z,12.57
2022-12-04T13:21:13.342Z,12.35
2022-12-04T13:23:58.639Z,12.83
2022-12-04T13:26:49.526Z,12.27
2022-12-04T13:29:33.180Z,11.80
2022-12-04T13:32:12.047Z,12.98
2022-12-04T13:35:00.167Z,13.37
2022-12-04T13:37:45.393Z,13.25
2022-12-04T13:40:35.415Z,12.20
2022-12-04T13:43:39.806Z,12.77
2022-12-04T13:46:25.565Z,13.20
2022-12-04T13:48:56.919Z,14.48
2022-12-04T13:51:38.509Z,14.13
2022-12-04T13:54:26.171Z,14.45
2022-12-04T13:57:12.729Z,15.13
2022-12-04T13:59:47.654Z,13.77
2022-12-04T14:02:32.350Z,12.40
2022-12-04T14:05:07.678Z,13.27
2022-12-04T14:07:40.615Z,12.52
2022-12-04T14:10:31.452Z,13.60
2022-12-04T14:13:08.541Z,12.77
2022-12-04T14:15:40.201Z,12.13
2022-12-04T14:18:23.238Z,11.63
2022-12-04T14:21:03.149Z,13.15
2022-12-04T14:23:42.615Z,12.45
2022-12-04T14:26:37.425Z,12.50
2022-12-04T14:29:37.905Z,11.90
2022-12-04T14:32:18.539Z,12.70
2022-12-04T14:34:52.034Z,13.63
2022-12-04T14:37:28.226Z,12.53
2022-12-04T14:40:01.901Z,14.40
2022-12-04T14:42:39.214Z,13.52
2022-12-04T14:45:26.645Z,13.87
2022-12-04T14:48:26.687Z,14.93
2022-12-04T14:51:05.207Z,13.97
2022-12-04T14:53:44.398Z,13.90
2022-12-04T14:56:35.496Z,14.75
2022-12-04T14:59:10.114Z,13.57
2022-12-04T15:01:44.648Z,14.63
2022-12-04T15:04:26.733Z,13.97
2022-12-04T15:07:00.413Z,14.75
2022-12-04T15:09:44.523Z,15.27
2022-12-04T15:12:34.836Z,15.43
2022-12-04T15:15:14.395Z,14.57
2022-12-04T15:17:59.822Z,13.35
2022-12-04T15:20:37.545Z,15.45
2022-12-04T15:23:11.163Z,15.88
2022-12-04T15:25:47.016Z,15.30
2022-12-04T15:28:21.658Z,15.73
2022-12-04T15:30:55.372Z,15.98
2022-12-04T15:33:32.543Z,15.87
2022-12-04T15:36:06.098Z,14.07
2022-12-04T15:38:38.079Z,14.35
2022-12-04T15:41:09.101Z,14.60
2022-12-04T15:43:44.709Z,16.27
2022-12-04T15:46:17.008Z,13.87
2022-12-04T15:48:52.103Z,15.47
2022-12-04T15:51:24.602Z,16.00
2022-12-04T15:53:58.678Z,16.20
2022-12-04T15:56:32.057Z,16.00
2022-12-04T15:59:10.633Z,16.02
2022-12-04T16:01:42.906Z,15.77
2022-12-04T16:04:26.540Z,16.73
2022-12-04T16:06:57.287Z,16.60
2022-12-04T16:09:30.433Z,16.13
2022-12-04T16:12:03.345Z,16.27
2022-12-04T16:14:34.169Z,17.70
2022-12-04T16:17:06.560Z,17.37
2022-12-04T16:19:41.984Z,16.50
2022-12-04T16:22:19.337Z,16.90
2022-12-04T16:24:54.778Z,17.02
2022-12-04T16:27:27.057Z,17.23
2022-12-04T16:29:57.860Z,18.07
2022-12-04T16:32:32.872Z,17.30
2022-12-04T16:35:06.604Z,16.90
2022-12-04T16:37:37.928Z,16.52
2022-12-04T16:40:13.511Z,16.70
2022-12-04T16:42:47.145Z,16.50
2022-12-04T16:45:27.503Z,16.57
2022-12-04T16:48:00.972Z,17.30
2022-12-04T16:50:34.381Z,17.03
2022-12-04T16:53:06.858Z,16.23
2022-12-04T16:55:40.129Z,17.77
2022-12-04T16:58:10.932Z,17.38
2022-12-04T17:00:43.648Z,17.87
2022-12-04T17:03:21.523Z,17.30
2022-12-04T17:05:54.941Z,18.33
2022-12-04T17:08:26.531Z,18.20
2022-12-04T17:10:58.047Z,19.13
2022-12-04T17:13:28.837Z,19.80
2022-12-04T17:16:00.843Z,19.53
2022-12-04T17:18:31.984Z,19.40
2022-12-04T17:21:08.316Z,20.20
2022-12-04T17:23:39.591Z,19.77
2022-12-04T17:26:12.099Z,20.38
2022-12-04T17:28:43.370Z,20.50
2022-12-04T17:31:18.001Z,19.85
2022-12-04T17:33:51.989Z,19.23
2022-12-04T17:36:27.792Z,19.75
2022-12-04T17:39:01.568Z,19.73
2022-12-04T17:41:33.982Z,20.30
2022-12-04T17:44:04.740Z,21.00
2022-12-04T17:46:38.836Z,19.57
2022-12-04T17:49:14.054Z,20.88
2022-12-04T17:51:47.721Z,21.53
2022-12-04T17:54:18.729Z,20.50
2022-12-04T17:56:57.577Z,19.43
2022-12-04T17:59:29.040Z,21.30
2022-12-04T18:01:59.830Z,19.90
2022-12-04T18:04:36.174Z,21.30
2022-12-04T18:07:09.886Z,19.35
2022-12-04T18:09:40.739Z,20.10
2022-12-04T18:12:12.265Z,20.00
2022-12-04T18:14:43.526Z,20.03
2022-12-04T18:17:14.435Z,20.37
2022-12-04T18:19:45.792Z,19.17
2022-12-04T18:22:19.192Z,20.25
2022-12-04T18:24:50.034Z,20.20
2022-12-04T18:27:21.276Z,20.70
2022-12-04T18:29:52.038Z,21.58
2022-12-04T18:32:22.860Z,21.45
2022-12-04T18:34:53.853Z,21.58
2022-12-04T18:37:27.415Z,20.58
2022-12-04T18:40:02.128Z,20.83
2022-12-04T18:42:35.740Z,19.10
2022-12-04T18:45:07.251Z,19.27
2022-12-04T18:47:40.985Z,21.57
2022-12-04T18:50:13.427Z,19.83
2022-12-04T18:52:50.329Z,20.07
2022-12-04T18:55:25.732Z,20.30
2022-12-04T18:57:56.568Z,19.80
2022-12-04T19:00:27.302Z,21.50
2022-12-04T19:02:58.810Z,21.05
2022-12-04T19:05:29.704Z,20.58
2022-12-04T19:08:03.321Z,22.23
2022-12-04T19:10:34.738Z,20.83
2022-12-04T19:13:06.008Z,20.60
2022-12-04T19:15:37.231Z,23.00
2022-12-04T19:18:08.190Z,21.23
2022-12-04T19:20:42.837Z,21.75
2022-12-04T19:23:16.266Z,21.98
2022-12-04T19:25:47.043Z,22.67
2022-12-04T19:28:17.802Z,21.33
2022-12-04T19:30:48.542Z,21.87
2022-12-04T19:33:19.294Z,21.60
2022-12-04T19:35:59.903Z,20.40
2022-12-04T19:38:36.475Z,22.23
2022-12-04T19:41:15.057Z,20.95
2022-12-04T19:43:47.700Z,21.83
2022-12-04T19:46:21.348Z,21.60
2022-12-04T19:48:52.730Z,21.50
2022-12-04T19:51:24.576Z,22.88
2022-12-04T19:53:58.518Z,20.63
2022-12-04T19:56:30.857Z,20.75
2022-12-04T19:59:04.712Z,20.85
2022-12-04T20:01:38.749Z,21.13
2022-12-04T20:04:10.946Z,20.40
2022-12-04T20:06:43.419Z,20.23
2022-12-04T20:09:20.803Z,20.52
2022-12-04T20:11:51.595Z,20.38
2022-12-04T20:14:22.381Z,19.77
2022-12-04T20:16:54.869Z,19.73
2022-12-04T20:19:26.407Z,20.02
2022-12-04T20:21:59.633Z,20.83
2022-12-04T20:24:33.149Z,18.98
2022-12-04T20:27:04.020Z,20.27
2022-12-04T20:29:34.871Z,19.00
2022-12-04T20:32:08.083Z,18.33
2022-12-04T20:34:43.447Z,19.65
2022-12-04T20:37:16.012Z,19.50
2022-12-04T20:39:49.350Z,18.77
2022-12-04T20:42:20.172Z,19.27
2022-12-04T20:44:50.942Z,18.52
2022-12-04T20:47:21.763Z,19.53
2022-12-04T20:49:52.530Z,18.00
2022-12-04T20:52:23.186Z,17.38
2022-12-04T20:55:00.016Z,19.15
2022-12-04T20:57:33.022Z,18.33
2022-12-04T21:00:05.868Z,18.87
2022-12-04T21:02:38.217Z,18.07
2022-12-04T21:05:10.022Z,18.95
2022-12-04T21:07:40.837Z,18.57
2022-12-04T21:10:16.101Z,19.48
2022-12-04T21:12:59.317Z,19.10
2022-12-04T21:15:42.665Z,18.25
2022-12-04T21:18:13.427Z,18.80
2022-12-04T21:20:44.172Z,18.42
2022-12-04T21:23:15.292Z,19.57
2022-12-04T21:25:48.766Z,19.03
2022-12-04T21:28:19.547Z,17.63
2022-12-04T21:30:50.545Z,17.98
2022-12-04T21:33:21.782Z,18.67
2022-12-04T21:35:52.581Z,18.03
2022-12-04T21:38:23.380Z,19.40
2022-12-04T21:40:56.982Z,19.60
2022-12-04T21:43:27.721Z,20.02
2022-12-04T21:46:08.848Z,18.88
2022-12-04T21:48:41.218Z,19.65
2022-12-04T21:51:26.850Z,20.08
2022-12-04T21:54:03.444Z,18.53
2022-12-04T21:56:37.097Z,19.33
2022-12-04T21:59:08.190Z,20.40
2022-12-04T22:01:39.415Z,19.75
2022-12-04T22:04:10.182Z,19.67
2022-12-04T22:06:42.888Z,20.40
2022-12-04T22:09:15.112Z,21.37
2022-12-04T22:11:49.006Z,23.17
2022-12-04T22:14:20.902Z,21.00
2022-12-04T22:16:55.786Z,20.88
2022-12-04T22:19:26.634Z,21.30
2022-12-04T22:21:57.431Z,20.77
2022-12-04T22:24:28.833Z,19.60
2022-12-04T22:27:03.719Z,21.87
2022-12-04T22:29:49.781Z,20.13
2022-12-04T22:32:21.619Z,21.03
2022-12-04T22:34:52.541Z,19.65
2022-12-04T22:37:27.839Z,20.98
2022-12-04T22:39:58.989Z,19.50
2022-12-04T22:42:32.513Z,20.55
2022-12-04T22:45:05.490Z,21.03
2022-12-04T22:47:38.051Z,20.30
2022-12-04T22:50:12.049Z,20.42
2022-12-04T22:52:42.824Z,20.10
2022-12-04T22:55:13.566Z,20.77
2022-12-04T22:57:46.924Z,18.97
2022-12-04T23:00:18.501Z,19.30
2022-12-04T23:02:49.291Z,19.45
2022-12-04T23:05:20.387Z,19.83
2022-12-04T23:07:51.287Z,18.90
2022-12-04T23:10:22.079Z,20.40
2022-12-04T23:12:58.410Z,19.80
2022-12-04T23:15:29.123Z,19.70
2022-12-04T23:18:00.269Z,20.00
2022-12-04T23:20:31.005Z,19.95
2022-12-04T23:23:01.753Z,19.80
2022-12-04T23:25:35.089Z,19.52
2022-12-04T23:28:08.428Z,20.73
2022-12-04T23:30:40.922Z,20.05
2022-12-04T23:33:11.867Z,19.93
2022-12-04T23:35:42.653Z,19.80
2022-12-04T23:38:17.326Z,20.33
2022-12-04T23:40:48.343Z,20.27
2022-12-04T23:43:23.285Z,20.65
2022-12-04T23:45:54.004Z,18.50
2022-12-04T23:48:28.412Z,19.83
2022-12-04T23:50:59.127Z,19.73
2022-12-04T23:53:30.350Z,20.50
2022-12-04T23:56:02.655Z,20.07
2022-12-04T23:58:37.430Z,20.15
